sensor_id;sensor_type;location;lat;lon;timestamp;pressure;altitude;pressure_sealevel;temperature;humidity
76794;BME280;65745;50.278;18.192;2024-03-29T00:01:05;98377.46;;;7.50;79.48
76794;BME280;65745;50.278;18.192;2024-03-29T00:03:53;98387.37;;;7.45;79.40
76794;BME280;65745;50.278;18.192;2024-03-29T00:06:25;98397.79;;;7.41;79.63
76794;BME280;65745;50.278;18.192;2024-03-29T00:08:56;98406.29;;;7.34;79.40
76794;BME280;65745;50.278;18.192;2024-03-29T00:11:29;98416.54;;;7.30;79.47
76794;BME280;65745;50.278;18.192;2024-03-29T00:14:01;98425.91;;;7.26;79.42
76794;BME280;65745;50.278;18.192;2024-03-29T00:16:33;98430.85;;;7.22;79.52
76794;BME280;65745;50.278;18.192;2024-03-29T00:19:05;98434.59;;;7.19;79.66
76794;BME280;65745;50.278;18.192;2024-03-29T00:21:36;98436.61;;;7.15;79.81
76794;BME280;65745;50.278;18.192;2024-03-29T00:24:08;98443.08;;;7.11;80.29
76794;BME280;65745;50.278;18.192;2024-03-29T00:26:40;98440.81;;;7.07;80.21
76794;BME280;65745;50.278;18.192;2024-03-29T00:29:11;98444.89;;;7.05;80.28
76794;BME280;65745;50.278;18.192;2024-03-29T00:31:43;98448.30;;;7.04;80.04
76794;BME280;65745;50.278;18.192;2024-03-29T00:34:15;98453.92;;;7.01;80.26
76794;BME280;65745;50.278;18.192;2024-03-29T00:36:47;98470.83;;;6.98;80.71
76794;BME280;65745;50.278;18.192;2024-03-29T00:39:19;98480.18;;;6.93;81.51
76794;BME280;65745;50.278;18.192;2024-03-29T00:41:50;98485.63;;;6.90;80.96
76794;BME280;65745;50.278;18.192;2024-03-29T00:44:22;98497.41;;;6.88;81.00
76794;BME280;65745;50.278;18.192;2024-03-29T00:46:53;98504.56;;;6.84;80.17
76794;BME280;65745;50.278;18.192;2024-03-29T00:49:25;98503.17;;;6.82;80.25
76794;BME280;65745;50.278;18.192;2024-03-29T00:51:57;98504.33;;;6.79;80.15
76794;BME280;65745;50.278;18.192;2024-03-29T00:54:28;98504.50;;;6.80;79.96
76794;BME280;65745;50.278;18.192;2024-03-29T00:57:00;98513.06;;;6.80;80.01
76794;BME280;65745;50.278;18.192;2024-03-29T00:59:32;98519.59;;;6.81;80.40
76794;BME280;65745;50.278;18.192;2024-03-29T01:02:04;98528.15;;;6.81;80.50
76794;BME280;65745;50.278;18.192;2024-03-29T01:04:36;98535.16;;;6.81;80.53
76794;BME280;65745;50.278;18.192;2024-03-29T01:07:08;98544.89;;;6.79;80.39
76794;BME280;65745;50.278;18.192;2024-03-29T01:09:40;98551.36;;;6.77;80.82
76794;BME280;65745;50.278;18.192;2024-03-29T01:12:11;98555.92;;;6.73;80.81
76794;BME280;65745;50.278;18.192;2024-03-29T01:14:43;98557.94;;;6.70;80.75
76794;BME280;65745;50.278;18.192;2024-03-29T01:17:15;98563.71;;;6.67;80.75
76794;BME280;65745;50.278;18.192;2024-03-29T01:19:46;98566.73;;;6.63;81.43
76794;BME280;65745;50.278;18.192;2024-03-29T01:22:18;98571.95;;;6.57;81.32
76794;BME280;65745;50.278;18.192;2024-03-29T01:24:50;98574.13;;;6.53;81.45
76794;BME280;65745;50.278;18.192;2024-03-29T01:27:22;98579.02;;;6.48;81.72
76794;BME280;65745;50.278;18.192;2024-03-29T01:29:53;98584.57;;;6.42;81.61
76794;BME280;65745;50.278;18.192;2024-03-29T01:32:25;98590.32;;;6.38;81.40
76794;BME280;65745;50.278;18.192;2024-03-29T01:34:57;98597.08;;;6.33;81.15
76794;BME280;65745;50.278;18.192;2024-03-29T01:37:28;98603.85;;;6.28;80.98
76794;BME280;65745;50.278;18.192;2024-03-29T01:40:01;98608.27;;;6.26;81.98
76794;BME280;65745;50.278;18.192;2024-03-29T01:42:33;98612.40;;;6.18;83.26
76794;BME280;65745;50.278;18.192;2024-03-29T01:45:06;98609.77;;;6.14;82.06
76794;BME280;65745;50.278;18.192;2024-03-29T01:47:42;98610.25;;;6.12;81.53
76794;BME280;65745;50.278;18.192;2024-03-29T01:50:13;98613.66;;;6.11;81.48
76794;BME280;65745;50.278;18.192;2024-03-29T01:52:45;98618.88;;;6.06;81.88
76794;BME280;65745;50.278;18.192;2024-03-29T01:55:17;98632.02;;;6.05;81.03
76794;BME280;65745;50.278;18.192;2024-03-29T01:57:50;98642.38;;;6.02;81.02
76794;BME280;65745;50.278;18.192;2024-03-29T02:00:22;98651.41;;;6.00;80.25
76794;BME280;65745;50.278;18.192;2024-03-29T02:02:54;98657.49;;;5.96;81.11
76794;BME280;65745;50.278;18.192;2024-03-29T02:05:27;98660.17;;;5.93;80.78
76794;BME280;65745;50.278;18.192;2024-03-29T02:08:00;98668.24;;;5.86;81.43
76794;BME280;65745;50.278;18.192;2024-03-29T02:10:32;98668.15;;;5.83;81.17
76794;BME280;65745;50.278;18.192;2024-03-29T02:13:04;98672.21;;;5.81;80.96
76794;BME280;65745;50.278;18.192;2024-03-29T02:15:36;98674.35;;;5.77;80.94
76794;BME280;65745;50.278;18.192;2024-03-29T02:18:08;98681.63;;;5.74;80.35
76794;BME280;65745;50.278;18.192;2024-03-29T02:20:39;98685.95;;;5.67;81.63
76794;BME280;65745;50.278;18.192;2024-03-29T02:23:14;98687.67;;;5.60;81.91
76794;BME280;65745;50.278;18.192;2024-03-29T02:25:47;98689.00;;;5.49;82.89
76794;BME280;65745;50.278;18.192;2024-03-29T02:28:19;98695.87;;;5.42;82.77
76794;BME280;65745;50.278;18.192;2024-03-29T02:30:52;98699.11;;;5.34;83.99
76794;BME280;65745;50.278;18.192;2024-03-29T02:33:23;98701.66;;;5.34;82.17
76794;BME280;65745;50.278;18.192;2024-03-29T02:35:55;98707.45;;;5.33;81.94
76794;BME280;65745;50.278;18.192;2024-03-29T02:38:27;98710.19;;;5.33;81.14
76794;BME280;65745;50.278;18.192;2024-03-29T02:40:59;98712.52;;;5.30;80.91
76794;BME280;65745;50.278;18.192;2024-03-29T02:43:30;98714.76;;;5.23;80.95
76794;BME280;65745;50.278;18.192;2024-03-29T02:46:02;98724.26;;;5.13;81.03
76794;BME280;65745;50.278;18.192;2024-03-29T02:48:34;98730.41;;;5.06;80.99
76794;BME280;65745;50.278;18.192;2024-03-29T02:51:06;98729.44;;;5.01;80.66
76794;BME280;65745;50.278;18.192;2024-03-29T02:53:38;98730.55;;;4.97;80.77
76794;BME280;65745;50.278;18.192;2024-03-29T02:56:09;98731.11;;;4.92;81.13
76794;BME280;65745;50.278;18.192;2024-03-29T02:58:41;98726.77;;;4.89;81.15
76794;BME280;65745;50.278;18.192;2024-03-29T03:01:12;98723.50;;;4.87;81.55
76794;BME280;65745;50.278;18.192;2024-03-29T03:03:44;98719.35;;;4.85;81.27
76794;BME280;65745;50.278;18.192;2024-03-29T03:06:16;98712.33;;;4.84;81.35
76794;BME280;65745;50.278;18.192;2024-03-29T03:08:48;98710.79;;;4.84;82.30
76794;BME280;65745;50.278;18.192;2024-03-29T03:11:38;98708.94;;;4.85;82.01
76794;BME280;65745;50.278;18.192;2024-03-29T03:14:09;98701.46;;;4.86;81.65
76794;BME280;65745;50.278;18.192;2024-03-29T03:16:41;98703.20;;;4.88;82.11
76794;BME280;65745;50.278;18.192;2024-03-29T03:19:13;98708.70;;;4.89;82.01
76794;BME280;65745;50.278;18.192;2024-03-29T03:21:44;98709.56;;;4.89;82.27
76794;BME280;65745;50.278;18.192;2024-03-29T03:24:16;98706.31;;;4.89;82.29
76794;BME280;65745;50.278;18.192;2024-03-29T03:26:48;98705.27;;;4.89;82.26
76794;BME280;65745;50.278;18.192;2024-03-29T03:29:19;98697.46;;;4.90;82.65
76794;BME280;65745;50.278;18.192;2024-03-29T03:31:51;98691.04;;;4.93;82.95
76794;BME280;65745;50.278;18.192;2024-03-29T03:34:22;98688.68;;;4.94;82.63
76794;BME280;65745;50.278;18.192;2024-03-29T03:36:54;98690.23;;;4.95;83.05
76794;BME280;65745;50.278;18.192;2024-03-29T03:39:26;98696.73;;;4.95;82.78
76794;BME280;65745;50.278;18.192;2024-03-29T03:41:58;98704.38;;;4.94;83.20
76794;BME280;65745;50.278;18.192;2024-03-29T03:44:29;98711.29;;;4.90;83.38
76794;BME280;65745;50.278;18.192;2024-03-29T03:47:01;98713.96;;;4.89;83.36
76794;BME280;65745;50.278;18.192;2024-03-29T03:49:33;98724.69;;;4.87;83.85
76794;BME280;65745;50.278;18.192;2024-03-29T03:52:05;98727.22;;;4.86;83.79
76794;BME280;65745;50.278;18.192;2024-03-29T03:54:37;98726.86;;;4.85;83.98
76794;BME280;65745;50.278;18.192;2024-03-29T03:57:08;98734.69;;;4.84;83.81
76794;BME280;65745;50.278;18.192;2024-03-29T03:59:40;98733.27;;;4.82;84.18
76794;BME280;65745;50.278;18.192;2024-03-29T04:02:12;98725.92;;;4.81;84.06
76794;BME280;65745;50.278;18.192;2024-03-29T04:04:43;98726.09;;;4.81;83.91
76794;BME280;65745;50.278;18.192;2024-03-29T04:07:18;98725.21;;;4.81;83.97
76794;BME280;65745;50.278;18.192;2024-03-29T04:09:53;98726.20;;;4.79;84.20
76794;BME280;65745;50.278;18.192;2024-03-29T04:12:24;98735.23;;;4.79;84.65
76794;BME280;65745;50.278;18.192;2024-03-29T04:14:56;98740.16;;;4.78;84.21
76794;BME280;65745;50.278;18.192;2024-03-29T04:17:28;98748.48;;;4.77;84.48
76794;BME280;65745;50.278;18.192;2024-03-29T04:20:01;98754.14;;;4.78;84.13
76794;BME280;65745;50.278;18.192;2024-03-29T04:22:33;98754.34;;;4.79;84.52
76794;BME280;65745;50.278;18.192;2024-03-29T04:25:05;98759.83;;;4.80;84.35
76794;BME280;65745;50.278;18.192;2024-03-29T04:27:37;98762.08;;;4.81;84.21
76794;BME280;65745;50.278;18.192;2024-03-29T04:30:10;98760.39;;;4.82;84.38
76794;BME280;65745;50.278;18.192;2024-03-29T04:32:42;98771.27;;;4.81;84.72
76794;BME280;65745;50.278;18.192;2024-03-29T04:35:14;98777.00;;;4.78;84.71
76794;BME280;65745;50.278;18.192;2024-03-29T04:37:46;98779.05;;;4.78;84.67
76794;BME280;65745;50.278;18.192;2024-03-29T04:40:17;98776.14;;;4.77;84.82
76794;BME280;65745;50.278;18.192;2024-03-29T04:42:49;98773.96;;;4.79;84.47
76794;BME280;65745;50.278;18.192;2024-03-29T04:45:20;98772.47;;;4.81;85.03
76794;BME280;65745;50.278;18.192;2024-03-29T04:47:52;98772.36;;;4.84;84.92
76794;BME280;65745;50.278;18.192;2024-03-29T04:50:24;98787.65;;;4.87;85.13
76794;BME280;65745;50.278;18.192;2024-03-29T04:52:55;98792.27;;;4.95;85.37
76794;BME280;65745;50.278;18.192;2024-03-29T04:55:27;98796.16;;;5.00;85.27
76794;BME280;65745;50.278;18.192;2024-03-29T04:57:59;98800.41;;;5.07;85.45
76794;BME280;65745;50.278;18.192;2024-03-29T05:00:30;98791.70;;;5.14;85.39
76794;BME280;65745;50.278;18.192;2024-03-29T05:03:02;98794.20;;;5.18;85.18
76794;BME280;65745;50.278;18.192;2024-03-29T05:05:34;98794.98;;;5.23;85.42
76794;BME280;65745;50.278;18.192;2024-03-29T05:08:06;98801.23;;;5.28;85.34
76794;BME280;65745;50.278;18.192;2024-03-29T05:10:38;98810.73;;;5.32;85.43
76794;BME280;65745;50.278;18.192;2024-03-29T05:13:10;98813.89;;;5.36;85.17
76794;BME280;65745;50.278;18.192;2024-03-29T05:15:42;98812.42;;;5.39;85.22
76794;BME280;65745;50.278;18.192;2024-03-29T05:18:14;98818.13;;;5.42;84.97
76794;BME280;65745;50.278;18.192;2024-03-29T05:20:45;98820.91;;;5.45;84.83
76794;BME280;65745;50.278;18.192;2024-03-29T05:23:21;98824.27;;;5.48;85.11
76794;BME280;65745;50.278;18.192;2024-03-29T05:25:52;98823.27;;;5.50;85.08
76794;BME280;65745;50.278;18.192;2024-03-29T05:28:24;98826.41;;;5.53;85.05
76794;BME280;65745;50.278;18.192;2024-03-29T05:30:56;98835.05;;;5.59;84.71
76794;BME280;65745;50.278;18.192;2024-03-29T05:33:39;98841.02;;;5.65;84.71
76794;BME280;65745;50.278;18.192;2024-03-29T05:36:12;98844.63;;;5.74;84.47
76794;BME280;65745;50.278;18.192;2024-03-29T05:38:43;98849.05;;;5.81;84.28
76794;BME280;65745;50.278;18.192;2024-03-29T05:41:15;98848.66;;;5.86;84.20
76794;BME280;65745;50.278;18.192;2024-03-29T05:43:47;98845.28;;;5.95;84.03
76794;BME280;65745;50.278;18.192;2024-03-29T05:46:19;98841.02;;;6.03;84.05
76794;BME280;65745;50.278;18.192;2024-03-29T05:48:50;98839.86;;;6.14;83.62
76794;BME280;65745;50.278;18.192;2024-03-29T05:51:22;98831.33;;;6.22;83.51
76794;BME280;65745;50.278;18.192;2024-03-29T05:53:54;98837.54;;;6.34;83.27
76794;BME280;65745;50.278;18.192;2024-03-29T05:56:26;98832.45;;;6.45;83.06
76794;BME280;65745;50.278;18.192;2024-03-29T05:58:58;98827.67;;;6.55;82.99
76794;BME280;65745;50.278;18.192;2024-03-29T06:01:30;98830.13;;;6.68;82.70
76794;BME280;65745;50.278;18.192;2024-03-29T06:04:01;98823.64;;;6.78;82.31
76794;BME280;65745;50.278;18.192;2024-03-29T06:06:39;98818.34;;;6.88;82.00
76794;BME280;65745;50.278;18.192;2024-03-29T06:09:11;98817.14;;;6.99;81.75
76794;BME280;65745;50.278;18.192;2024-03-29T06:11:43;98822.25;;;7.07;81.78
76794;BME280;65745;50.278;18.192;2024-03-29T06:14:15;98824.98;;;7.17;81.67
76794;BME280;65745;50.278;18.192;2024-03-29T06:17:05;98820.67;;;7.27;81.60
76794;BME280;65745;50.278;18.192;2024-03-29T06:19:56;98820.66;;;7.37;81.12
76794;BME280;65745;50.278;18.192;2024-03-29T06:22:29;98826.24;;;7.45;81.30
76794;BME280;65745;50.278;18.192;2024-03-29T06:25:01;98831.89;;;7.55;80.54
76794;BME280;65745;50.278;18.192;2024-03-29T06:27:36;98843.30;;;7.62;80.32
76794;BME280;65745;50.278;18.192;2024-03-29T06:30:09;98845.02;;;7.74;80.16
76794;BME280;65745;50.278;18.192;2024-03-29T06:32:41;98851.34;;;7.85;79.85
76794;BME280;65745;50.278;18.192;2024-03-29T06:35:13;98858.17;;;7.95;79.45
76794;BME280;65745;50.278;18.192;2024-03-29T06:37:44;98862.08;;;8.05;78.85
76794;BME280;65745;50.278;18.192;2024-03-29T06:40:16;98856.04;;;8.16;78.49
76794;BME280;65745;50.278;18.192;2024-03-29T06:42:48;98849.65;;;8.26;78.14
76794;BME280;65745;50.278;18.192;2024-03-29T06:45:19;98843.80;;;8.36;77.70
76794;BME280;65745;50.278;18.192;2024-03-29T06:47:51;98832.59;;;8.46;76.97
76794;BME280;65745;50.278;18.192;2024-03-29T06:50:23;98824.98;;;8.59;76.16
76794;BME280;65745;50.278;18.192;2024-03-29T06:52:55;98831.10;;;8.68;75.91
76794;BME280;65745;50.278;18.192;2024-03-29T06:55:26;98836.16;;;8.77;75.49
76794;BME280;65745;50.278;18.192;2024-03-29T06:57:58;98843.85;;;8.90;75.43
76794;BME280;65745;50.278;18.192;2024-03-29T07:00:30;98852.92;;;9.04;75.04
76794;BME280;65745;50.278;18.192;2024-03-29T07:03:02;98855.41;;;9.15;74.01
76794;BME280;65745;50.278;18.192;2024-03-29T07:05:34;98846.36;;;9.23;73.53
76794;BME280;65745;50.278;18.192;2024-03-29T07:08:07;98841.61;;;9.29;73.10
76794;BME280;65745;50.278;18.192;2024-03-29T07:10:38;98836.55;;;9.41;73.17
76794;BME280;65745;50.278;18.192;2024-03-29T07:13:10;98835.95;;;9.55;72.90
76794;BME280;65745;50.278;18.192;2024-03-29T07:15:52;98845.34;;;9.70;72.26
76794;BME280;65745;50.278;18.192;2024-03-29T07:18:23;98848.71;;;9.87;72.64
76794;BME280;65745;50.278;18.192;2024-03-29T07:20:55;98865.69;;;10.08;72.12
76794;BME280;65745;50.278;18.192;2024-03-29T07:23:27;98872.17;;;10.29;71.68
76794;BME280;65745;50.278;18.192;2024-03-29T07:26:03;98871.74;;;10.47;71.02
76794;BME280;65745;50.278;18.192;2024-03-29T07:28:35;98876.45;;;10.65;70.28
76794;BME280;65745;50.278;18.192;2024-03-29T07:31:08;98875.80;;;10.80;69.35
76794;BME280;65745;50.278;18.192;2024-03-29T07:33:40;98873.41;;;10.91;69.30
76794;BME280;65745;50.278;18.192;2024-03-29T07:36:12;98878.95;;;11.12;69.08
76794;BME280;65745;50.278;18.192;2024-03-29T07:38:47;98880.70;;;11.27;68.15
76794;BME280;65745;50.278;18.192;2024-03-29T07:41:18;98875.52;;;11.32;66.73
76794;BME280;65745;50.278;18.192;2024-03-29T07:43:55;98863.29;;;11.33;65.89
76794;BME280;65745;50.278;18.192;2024-03-29T07:46:31;98861.56;;;11.39;65.69
76794;BME280;65745;50.278;18.192;2024-03-29T07:49:03;98865.86;;;11.41;65.20
76794;BME280;65745;50.278;18.192;2024-03-29T07:51:35;98870.01;;;11.44;65.07
76794;BME280;65745;50.278;18.192;2024-03-29T07:54:07;98874.48;;;11.53;65.34
76794;BME280;65745;50.278;18.192;2024-03-29T07:56:38;98871.21;;;11.56;64.42
76794;BME280;65745;50.278;18.192;2024-03-29T07:59:10;98870.17;;;11.58;63.67
76794;BME280;65745;50.278;18.192;2024-03-29T08:01:42;98876.89;;;11.52;63.66
76794;BME280;65745;50.278;18.192;2024-03-29T08:04:13;98878.45;;;11.60;64.81
76794;BME280;65745;50.278;18.192;2024-03-29T08:06:45;98880.00;;;11.73;64.80
76794;BME280;65745;50.278;18.192;2024-03-29T08:09:17;98887.61;;;11.79;63.95
76794;BME280;65745;50.278;18.192;2024-03-29T08:11:49;98891.56;;;11.83;64.10
76794;BME280;65745;50.278;18.192;2024-03-29T08:14:20;98888.09;;;11.92;64.40
76794;BME280;65745;50.278;18.192;2024-03-29T08:16:52;98881.86;;;12.04;64.31
76794;BME280;65745;50.278;18.192;2024-03-29T08:19:24;98876.46;;;12.20;65.44
76794;BME280;65745;50.278;18.192;2024-03-29T08:21:56;98875.72;;;12.34;65.37
76794;BME280;65745;50.278;18.192;2024-03-29T08:24:28;98875.14;;;12.51;64.86
76794;BME280;65745;50.278;18.192;2024-03-29T08:26:59;98878.21;;;12.59;63.71
76794;BME280;65745;50.278;18.192;2024-03-29T08:29:32;98873.86;;;12.66;63.61
76794;BME280;65745;50.278;18.192;2024-03-29T08:32:05;98879.32;;;12.76;62.14
76794;BME280;65745;50.278;18.192;2024-03-29T08:34:38;98874.33;;;12.76;62.08
76794;BME280;65745;50.278;18.192;2024-03-29T08:37:09;98875.67;;;12.81;62.26
76794;BME280;65745;50.278;18.192;2024-03-29T08:39:41;98883.05;;;12.93;61.16
76794;BME280;65745;50.278;18.192;2024-03-29T08:42:13;98881.63;;;12.99;61.03
76794;BME280;65745;50.278;18.192;2024-03-29T08:44:47;98883.45;;;13.13;61.20
76794;BME280;65745;50.278;18.192;2024-03-29T08:47:19;98884.75;;;13.27;60.83
76794;BME280;65745;50.278;18.192;2024-03-29T08:49:50;98885.52;;;13.38;60.96
76794;BME280;65745;50.278;18.192;2024-03-29T08:52:22;98886.48;;;13.48;60.14
76794;BME280;65745;50.278;18.192;2024-03-29T08:54:54;98884.18;;;13.56;59.90
76794;BME280;65745;50.278;18.192;2024-03-29T08:57:26;98890.65;;;13.67;59.05
76794;BME280;65745;50.278;18.192;2024-03-29T08:59:57;98890.74;;;13.76;58.15
76794;BME280;65745;50.278;18.192;2024-03-29T09:02:29;98892.02;;;13.88;58.02
76794;BME280;65745;50.278;18.192;2024-03-29T09:05:01;98889.80;;;14.01;57.85
76794;BME280;65745;50.278;18.192;2024-03-29T09:07:33;98900.38;;;14.16;58.13
76794;BME280;65745;50.278;18.192;2024-03-29T09:10:06;98900.59;;;14.29;57.45
76794;BME280;65745;50.278;18.192;2024-03-29T09:12:38;98900.85;;;14.40;56.44
76794;BME280;65745;50.278;18.192;2024-03-29T09:15:10;98900.61;;;14.46;54.64
76794;BME280;65745;50.278;18.192;2024-03-29T09:17:46;98903.86;;;14.50;53.83
76794;BME280;65745;50.278;18.192;2024-03-29T09:20:18;98900.67;;;14.55;53.57
76794;BME280;65745;50.278;18.192;2024-03-29T09:22:52;98890.71;;;14.61;52.64
76794;BME280;65745;50.278;18.192;2024-03-29T09:25:24;98890.37;;;14.74;52.51
76794;BME280;65745;50.278;18.192;2024-03-29T09:27:55;98884.91;;;14.80;52.37
76794;BME280;65745;50.278;18.192;2024-03-29T09:30:27;98876.55;;;14.96;52.45
76794;BME280;65745;50.278;18.192;2024-03-29T09:32:59;98880.19;;;15.08;52.42
76794;BME280;65745;50.278;18.192;2024-03-29T09:35:31;98877.01;;;15.24;51.75
76794;BME280;65745;50.278;18.192;2024-03-29T09:38:03;98875.27;;;15.34;50.98
76794;BME280;65745;50.278;18.192;2024-03-29T09:40:35;98873.13;;;15.49;48.81
76794;BME280;65745;50.278;18.192;2024-03-29T09:43:08;98865.34;;;15.59;47.49
76794;BME280;65745;50.278;18.192;2024-03-29T09:45:53;98865.70;;;15.69;47.23
76794;BME280;65745;50.278;18.192;2024-03-29T09:48:27;98865.88;;;15.79;47.18
76794;BME280;65745;50.278;18.192;2024-03-29T09:51:07;98861.43;;;15.85;46.28
76794;BME280;65745;50.278;18.192;2024-03-29T09:53:40;98864.16;;;15.87;46.06
76794;BME280;65745;50.278;18.192;2024-03-29T09:56:12;98858.45;;;15.87;46.10
76794;BME280;65745;50.278;18.192;2024-03-29T09:58:44;98854.33;;;16.02;46.85
76794;BME280;65745;50.278;18.192;2024-03-29T10:01:16;98842.19;;;16.10;45.17
76794;BME280;65745;50.278;18.192;2024-03-29T10:03:50;98844.77;;;16.29;45.36
76794;BME280;65745;50.278;18.192;2024-03-29T10:06:23;98842.84;;;16.38;44.57
76794;BME280;65745;50.278;18.192;2024-03-29T10:08:56;98839.52;;;16.39;43.66
76794;BME280;65745;50.278;18.192;2024-03-29T10:11:28;98844.45;;;16.45;44.09
76794;BME280;65745;50.278;18.192;2024-03-29T10:14:00;98839.42;;;16.61;44.39
76794;BME280;65745;50.278;18.192;2024-03-29T10:16:33;98839.58;;;16.71;44.04
76794;BME280;65745;50.278;18.192;2024-03-29T10:19:04;98837.54;;;16.84;43.91
76794;BME280;65745;50.278;18.192;2024-03-29T10:21:37;98842.56;;;17.00;43.96
76794;BME280;65745;50.278;18.192;2024-03-29T10:24:14;98842.70;;;17.17;43.75
76794;BME280;65745;50.278;18.192;2024-03-29T10:26:47;98837.58;;;17.26;43.95
76794;BME280;65745;50.278;18.192;2024-03-29T10:29:19;98837.90;;;17.41;43.60
76794;BME280;65745;50.278;18.192;2024-03-29T10:31:51;98835.63;;;17.42;43.22
76794;BME280;65745;50.278;18.192;2024-03-29T10:34:22;98824.25;;;17.59;43.90
76794;BME280;65745;50.278;18.192;2024-03-29T10:36:56;98823.33;;;17.82;43.25
76794;BME280;65745;50.278;18.192;2024-03-29T10:39:28;98811.13;;;17.88;41.89
76794;BME280;65745;50.278;18.192;2024-03-29T10:42:01;98806.56;;;17.89;41.34
76794;BME280;65745;50.278;18.192;2024-03-29T10:44:36;98810.37;;;18.03;40.53
76794;BME280;65745;50.278;18.192;2024-03-29T10:47:09;98786.72;;;18.13;41.33
76794;BME280;65745;50.278;18.192;2024-03-29T10:49:43;98784.76;;;18.33;40.84
76794;BME280;65745;50.278;18.192;2024-03-29T10:52:15;98788.99;;;18.37;39.68
76794;BME280;65745;50.278;18.192;2024-03-29T10:54:48;98789.87;;;18.55;38.86
76794;BME280;65745;50.278;18.192;2024-03-29T10:57:24;98788.42;;;18.68;38.27
76794;BME280;65745;50.278;18.192;2024-03-29T11:00:02;98786.45;;;18.82;38.51
76794;BME280;65745;50.278;18.192;2024-03-29T11:02:42;98784.86;;;19.09;38.16
76794;BME280;65745;50.278;18.192;2024-03-29T11:05:19;98779.88;;;19.23;36.92
76794;BME280;65745;50.278;18.192;2024-03-29T11:07:51;98770.17;;;19.15;36.34
76794;BME280;65745;50.278;18.192;2024-03-29T11:10:29;98763.11;;;19.18;36.50
76794;BME280;65745;50.278;18.192;2024-03-29T11:13:09;98756.00;;;19.27;35.63
76794;BME280;65745;50.278;18.192;2024-03-29T11:15:44;98744.64;;;19.43;35.80
76794;BME280;65745;50.278;18.192;2024-03-29T11:18:17;98743.48;;;19.36;34.87
76794;BME280;65745;50.278;18.192;2024-03-29T11:20:50;98726.77;;;19.19;34.76
76794;BME280;65745;50.278;18.192;2024-03-29T11:23:26;98720.57;;;19.12;35.16
76794;BME280;65745;50.278;18.192;2024-03-29T11:25:58;98715.40;;;19.04;35.62
76794;BME280;65745;50.278;18.192;2024-03-29T11:28:32;98722.52;;;19.36;35.97
76794;BME280;65745;50.278;18.192;2024-03-29T11:31:06;98730.38;;;19.56;35.65
76794;BME280;65745;50.278;18.192;2024-03-29T11:33:46;98723.99;;;19.88;35.10
76794;BME280;65745;50.278;18.192;2024-03-29T11:36:20;98719.20;;;20.13;34.77
76794;BME280;65745;50.278;18.192;2024-03-29T11:38:55;98717.98;;;20.32;34.83
76794;BME280;65745;50.278;18.192;2024-03-29T11:41:29;98709.45;;;20.54;34.88
76794;BME280;65745;50.278;18.192;2024-03-29T11:44:02;98709.86;;;20.82;34.46
76794;BME280;65745;50.278;18.192;2024-03-29T11:46:34;98710.00;;;20.96;33.15
76794;BME280;65745;50.278;18.192;2024-03-29T11:49:07;98712.74;;;20.85;33.79
76794;BME280;65745;50.278;18.192;2024-03-29T11:51:40;98714.25;;;20.86;33.64
76794;BME280;65745;50.278;18.192;2024-03-29T11:54:13;98711.15;;;21.10;33.66
76794;BME280;65745;50.278;18.192;2024-03-29T11:56:44;98718.90;;;21.14;34.38
76794;BME280;65745;50.278;18.192;2024-03-29T11:59:16;98718.23;;;21.13;33.67
76794;BME280;65745;50.278;18.192;2024-03-29T12:01:48;98711.43;;;21.17;33.60
76794;BME280;65745;50.278;18.192;2024-03-29T12:04:22;98705.08;;;21.39;32.77
76794;BME280;65745;50.278;18.192;2024-03-29T12:06:54;98702.89;;;21.48;32.69
76794;BME280;65745;50.278;18.192;2024-03-29T12:09:26;98706.44;;;22.18;32.17
76794;BME280;65745;50.278;18.192;2024-03-29T12:11:58;98703.42;;;22.66;31.38
76794;BME280;65745;50.278;18.192;2024-03-29T12:14:36;98701.20;;;23.05;31.21
76794;BME280;65745;50.278;18.192;2024-03-29T12:17:12;98692.42;;;23.08;30.81
76794;BME280;65745;50.278;18.192;2024-03-29T12:19:43;98694.86;;;23.12;31.05
76794;BME280;65745;50.278;18.192;2024-03-29T12:22:15;98696.56;;;23.20;30.83
76794;BME280;65745;50.278;18.192;2024-03-29T12:24:50;98702.86;;;23.35;30.43
76794;BME280;65745;50.278;18.192;2024-03-29T12:27:22;98696.17;;;23.92;30.18
76794;BME280;65745;50.278;18.192;2024-03-29T12:29:54;98683.05;;;24.67;29.34
76794;BME280;65745;50.278;18.192;2024-03-29T12:32:27;98670.90;;;25.13;29.19
76794;BME280;65745;50.278;18.192;2024-03-29T12:35:09;98663.46;;;25.37;28.69
76794;BME280;65745;50.278;18.192;2024-03-29T12:37:48;98654.91;;;25.41;27.87
76794;BME280;65745;50.278;18.192;2024-03-29T12:40:21;98655.77;;;25.33;27.32
76794;BME280;65745;50.278;18.192;2024-03-29T12:42:53;98659.86;;;25.09;27.60
76794;BME280;65745;50.278;18.192;2024-03-29T12:45:26;98658.45;;;24.96;27.27
76794;BME280;65745;50.278;18.192;2024-03-29T12:47:59;98659.35;;;24.78;27.99
76794;BME280;65745;50.278;18.192;2024-03-29T12:50:33;98652.40;;;24.36;28.12
76794;BME280;65745;50.278;18.192;2024-03-29T12:53:09;98655.29;;;24.29;28.50
76794;BME280;65745;50.278;18.192;2024-03-29T12:55:43;98654.61;;;24.65;28.14
76794;BME280;65745;50.278;18.192;2024-03-29T12:58:16;98642.18;;;25.30;27.65
76794;BME280;65745;50.278;18.192;2024-03-29T13:00:52;98651.23;;;25.44;27.49
76794;BME280;65745;50.278;18.192;2024-03-29T13:03:24;98646.13;;;25.78;27.62
76794;BME280;65745;50.278;18.192;2024-03-29T13:06:01;98645.52;;;26.35;26.71
76794;BME280;65745;50.278;18.192;2024-03-29T13:08:33;98650.40;;;26.42;26.56
76794;BME280;65745;50.278;18.192;2024-03-29T13:11:06;98660.33;;;26.79;25.40
76794;BME280;65745;50.278;18.192;2024-03-29T13:13:37;98658.52;;;26.66;25.36
76794;BME280;65745;50.278;18.192;2024-03-29T13:16:09;98656.69;;;27.09;25.37
76794;BME280;65745;50.278;18.192;2024-03-29T13:18:41;98656.06;;;27.44;25.03
76794;BME280;65745;50.278;18.192;2024-03-29T13:21:12;98655.09;;;27.41;25.15
76794;BME280;65745;50.278;18.192;2024-03-29T13:23:44;98651.48;;;27.06;25.80